Time;durP1;ratioP1;P1;durP2;ratioP2;P2;SDS_P1;SDS_P2;PMS_P1;PMS_P2;Temp;Humidity;BMP_temperature;BMP_pressure;BME280_temperature;BME280_humidity;BME280_pressure;Samples;Min_cycle;Max_cycle;Signal;HPM_P1;HPM_P2
2023/12/23 00:00:02;;;;;;;4.90;1.02;;;;;;;;;;691343;28;1362;-67
2023/12/23 00:00:27;;;;;;;4.80;1.00;;;;;;;;;;691474;28;1333;-65
2023/12/23 00:00:48;;;;;;;3.60;0.90;;;;;;;;;;691972;28;4286;-66
2023/12/23 00:01:08;;;;;;;3.23;0.97;;;;;;;;;;691609;28;913;-66
2023/12/23 00:01:28;;;;;;;4.75;1.00;;;;;;;;;;692981;28;1083;-67
2023/12/23 00:01:48;;;;;;;5.33;0.93;;;;;;;;;;692710;28;1236;-68
2023/12/23 00:02:10;;;;;;;4.73;0.90;;;;;;;;;;691239;28;996;-69
2023/12/23 00:02:30;;;;;;;4.90;1.10;;;;;;;;;;692303;28;1161;-66
2023/12/23 00:02:51;;;;;;;3.67;0.90;;;;;;;;;;692847;28;1340;-67
2023/12/23 00:03:11;;;;;;;4.10;0.90;;;;;;;;;;691680;28;1174;-68
2023/12/23 00:03:31;;;;;;;3.47;0.90;;;;;;;;;;692552;28;1109;-69
2023/12/23 00:03:51;;;;;;;3.67;1.00;;;;;;;;;;692072;28;4321;-67
2023/12/23 00:04:12;;;;;;;5.80;1.10;;;;;;;;;;691392;28;1060;-68
2023/12/23 00:04:32;;;;;;;5.10;1.10;;;;;;;;;;692782;28;1321;-67
2023/12/23 00:04:54;;;;;;;3.03;0.88;;;;;;;;;;692345;28;1364;-67
2023/12/23 00:05:14;;;;;;;4.05;0.98;;;;;;;;;;691653;28;1184;-67
2023/12/23 00:05:34;;;;;;;3.33;1.03;;;;;;;;;;692765;28;1332;-68
2023/12/23 00:05:54;;;;;;;4.63;1.10;;;;;;;;;;692121;28;1270;-69
2023/12/23 00:06:15;;;;;;;5.63;1.10;;;;;;;;;;692169;28;1211;-68
2023/12/23 00:06:36;;;;;;;2.80;1.00;;;;;;;;;;692316;28;1381;-67
2023/12/23 00:06:56;;;;;;;3.60;1.23;;;;;;;;;;691341;28;4532;-67
2023/12/23 00:07:17;;;;;;;3.40;0.90;;;;;;;;;;692752;28;1404;-67
2023/12/23 00:07:41;;;;;;;3.90;0.93;;;;;;;;;;691932;28;1234;-68
2023/12/23 00:08:02;;;;;;;4.40;0.95;;;;;;;;;;691363;28;1218;-67
2023/12/23 00:08:23;;;;;;;2.65;0.75;;;;;;;;;;692126;28;1273;-66
2023/12/23 00:08:45;;;;;;;3.60;0.80;;;;;;;;;;692196;28;1293;-65
2023/12/23 00:09:05;;;;;;;5.03;0.90;;;;;;;;;;691688;28;1159;-67
2023/12/23 00:09:27;;;;;;;3.77;1.00;;;;;;;;;;694180;28;1308;-67
2023/12/23 00:09:47;;;;;;;3.13;0.73;;;;;;;;;;694854;28;4627;-68
2023/12/23 00:10:08;;;;;;;3.07;0.90;;;;;;;;;;694420;28;1825;-68
2023/12/23 00:10:29;;;;;;;5.03;1.00;;;;;;;;;;694198;28;1290;-68
2023/12/23 00:10:49;;;;;;;3.92;0.88;;;;;;;;;;694903;28;1000;-69
2023/12/23 00:11:09;;;;;;;5.53;1.00;;;;;;;;;;693622;28;1120;-68
2023/12/23 00:11:30;;;;;;;5.80;0.90;;;;;;;;;;692577;28;1202;-67
2023/12/23 00:11:50;;;;;;;3.93;0.80;;;;;;;;;;692755;28;1218;-68
2023/12/23 00:12:10;;;;;;;5.13;0.80;;;;;;;;;;691778;28;1102;-67
2023/12/23 00:12:31;;;;;;;3.23;0.70;;;;;;;;;;692333;28;1078;-68
2023/12/23 00:12:51;;;;;;;4.30;0.90;;;;;;;;;;692372;28;4414;-69
2023/12/23 00:13:12;;;;;;;3.85;0.85;;;;;;;;;;691924;28;1208;-68
2023/12/23 00:13:32;;;;;;;1.87;0.70;;;;;;;;;;692429;28;1251;-68
2023/12/23 00:13:52;;;;;;;5.00;1.02;;;;;;;;;;692877;28;1459;-68
2023/12/23 00:14:12;;;;;;;5.67;1.07;;;;;;;;;;691736;28;1141;-68
2023/12/23 00:14:33;;;;;;;4.50;1.10;;;;;;;;;;692246;28;1305;-67
2023/12/23 00:14:53;;;;;;;3.05;0.93;;;;;;;;;;692130;28;1261;-68
2023/12/23 00:15:13;;;;;;;5.37;1.40;;;;;;;;;;691949;28;1143;-67
2023/12/23 00:15:33;;;;;;;5.07;1.50;;;;;;;;;;692951;28;1250;-69
2023/12/23 00:15:54;;;;;;;3.63;0.98;;;;;;;;;;691587;28;4644;-68
2023/12/23 00:16:14;;;;;;;4.00;1.10;;;;;;;;;;691358;28;1233;-68
2023/12/23 00:16:35;;;;;;;4.07;1.03;;;;;;;;;;692715;28;1369;-69
2023/12/23 00:16:55;;;;;;;3.10;0.90;;;;;;;;;;691396;28;1064;-69
2023/12/23 00:17:15;;;;;;;4.50;0.83;;;;;;;;;;692700;28;2013;-67
2023/12/23 00:17:36;;;;;;;4.00;0.88;;;;;;;;;;692446;28;1385;-68
2023/12/23 00:17:56;;;;;;;5.03;1.03;;;;;;;;;;691476;28;1281;-68
2023/12/23 00:18:16;;;;;;;6.57;1.10;;;;;;;;;;692674;28;1380;-68
2023/12/23 00:18:36;;;;;;;6.68;1.30;;;;;;;;;;692637;28;1513;-68
2023/12/23 00:18:57;;;;;;;5.33;1.20;;;;;;;;;;690482;28;4397;-68
2023/12/23 00:19:17;;;;;;;3.33;0.90;;;;;;;;;;692137;28;1179;-68
2023/12/23 00:19:37;;;;;;;3.17;0.98;;;;;;;;;;693013;28;1373;-69
2023/12/23 00:19:57;;;;;;;4.90;1.20;;;;;;;;;;691537;28;1416;-68
2023/12/23 00:20:18;;;;;;;5.77;1.10;;;;;;;;;;692034;28;3435;-68
2023/12/23 00:20:38;;;;;;;4.70;0.90;;;;;;;;;;692290;28;1378;-68
2023/12/23 00:20:58;;;;;;;4.03;0.90;;;;;;;;;;690735;28;2535;-68
2023/12/23 00:21:18;;;;;;;5.07;1.23;;;;;;;;;;691558;28;1298;-69
2023/12/23 00:21:39;;;;;;;4.53;1.10;;;;;;;;;;692468;28;1341;-69
2023/12/23 00:21:59;;;;;;;2.83;0.80;;;;;;;;;;690329;28;4498;-68
2023/12/23 00:22:19;;;;;;;2.57;0.90;;;;;;;;;;692580;28;1302;-68
2023/12/23 00:22:39;;;;;;;4.03;0.90;;;;;;;;;;692712;28;1203;-68
2023/12/23 00:23:00;;;;;;;4.78;0.93;;;;;;;;;;691067;28;1726;-68
2023/12/23 00:23:20;;;;;;;4.47;0.90;;;;;;;;;;695138;28;1341;-67
2023/12/23 00:23:40;;;;;;;3.90;1.00;;;;;;;;;;695328;28;1238;-68
2023/12/23 00:24:01;;;;;;;3.28;1.02;;;;;;;;;;693970;28;1844;-68
2023/12/23 00:24:21;;;;;;;3.37;1.03;;;;;;;;;;696580;28;1252;-69
2023/12/23 00:24:41;;;;;;;2.93;0.80;;;;;;;;;;695507;28;4432;-69
2023/12/23 00:25:02;;;;;;;4.60;0.90;;;;;;;;;;695485;28;2357;-68
2023/12/23 00:25:22;;;;;;;3.50;0.85;;;;;;;;;;696420;28;1278;-68
2023/12/23 00:25:42;;;;;;;4.40;1.00;;;;;;;;;;697508;28;1364;-69
2023/12/23 00:26:03;;;;;;;3.77;0.90;;;;;;;;;;695497;28;2501;-68
2023/12/23 00:26:23;;;;;;;4.22;0.80;;;;;;;;;;691725;28;1200;-68
2023/12/23 00:26:43;;;;;;;2.47;0.80;;;;;;;;;;690795;28;1412;-69
2023/12/23 00:27:04;;;;;;;4.73;0.90;;;;;;;;;;689245;28;1016;-69
2023/12/23 00:27:24;;;;;;;6.00;0.93;;;;;;;;;;689559;28;1286;-68
2023/12/23 00:27:44;;;;;;;5.97;1.20;;;;;;;;;;688884;28;4446;-69
2023/12/23 00:28:05;;;;;;;4.13;1.10;;;;;;;;;;688330;28;1497;-69
2023/12/23 00:28:26;;;;;;;4.28;1.08;;;;;;;;;;688084;28;1102;-68
2023/12/23 00:28:46;;;;;;;3.60;0.90;;;;;;;;;;689986;28;1096;-69
2023/12/23 00:29:06;;;;;;;5.07;1.20;;;;;;;;;;688566;28;1746;-69
2023/12/23 00:29:27;;;;;;;5.68;1.25;;;;;;;;;;688392;28;1157;-68
2023/12/23 00:29:47;;;;;;;4.00;1.00;;;;;;;;;;689867;28;1240;-68
2023/12/23 00:30:08;;;;;;;4.33;0.90;;;;;;;;;;691247;28;2383;-68
2023/12/23 00:30:28;;;;;;;6.65;1.17;;;;;;;;;;690861;28;1394;-69
2023/12/23 00:30:48;;;;;;;3.90;0.90;;;;;;;;;;691863;28;4272;-68
2023/12/23 00:31:09;;;;;;;3.83;1.17;;;;;;;;;;687421;28;1553;-69
2023/12/23 00:31:30;;;;;;;3.60;1.35;;;;;;;;;;687923;28;1146;-69
2023/12/23 00:31:50;;;;;;;3.42;1.20;;;;;;;;;;689474;28;1608;-68
2023/12/23 00:32:10;;;;;;;5.67;1.00;;;;;;;;;;686061;28;2081;-69
2023/12/23 00:32:31;;;;;;;5.53;1.07;;;;;;;;;;685281;28;1303;-68
2023/12/23 00:32:51;;;;;;;4.13;0.95;;;;;;;;;;691220;28;1303;-68
2023/12/23 00:33:11;;;;;;;3.97;1.03;;;;;;;;;;692226;28;1897;-68
2023/12/23 00:33:31;;;;;;;3.77;1.10;;;;;;;;;;691881;28;1343;-69
2023/12/23 00:33:52;;;;;;;3.05;0.85;;;;;;;;;;691711;28;4448;-69
2023/12/23 00:34:12;;;;;;;3.83;1.03;;;;;;;;;;690768;28;1795;-69
2023/12/23 00:34:33;;;;;;;4.60;1.20;;;;;;;;;;691904;28;1158;-68
2023/12/23 00:34:53;;;;;;;4.80;0.97;;;;;;;;;;692579;28;1362;-69
2023/12/23 00:35:14;;;;;;;3.25;0.95;;;;;;;;;;693336;28;2403;-68
2023/12/23 00:35:35;;;;;;;4.22;0.98;;;;;;;;;;692615;28;1394;-69
2023/12/23 00:35:56;;;;;;;4.80;0.87;;;;;;;;;;696132;28;2209;-70
2023/12/23 00:36:16;;;;;;;5.60;1.10;;;;;;;;;;694458;28;1398;-68
2023/12/23 00:36:36;;;;;;;4.70;0.93;;;;;;;;;;692569;28;1405;-69
2023/12/23 00:36:57;;;;;;;3.73;0.87;;;;;;;;;;686888;28;4239;-69
2023/12/23 00:37:17;;;;;;;4.00;0.90;;;;;;;;;;686039;28;1983;-68
2023/12/23 00:37:37;;;;;;;3.55;0.90;;;;;;;;;;686515;28;1256;-69
2023/12/23 00:37:58;;;;;;;3.80;1.00;;;;;;;;;;688827;28;1752;-69
2023/12/23 00:38:18;;;;;;;4.03;1.00;;;;;;;;;;691253;28;1369;-69
2023/12/23 00:38:38;;;;;;;4.73;0.90;;;;;;;;;;692221;28;1311;-69
2023/12/23 00:38:58;;;;;;;4.83;0.80;;;;;;;;;;693126;28;5639;-68
2023/12/23 00:39:19;;;;;;;6.03;1.07;;;;;;;;;;694968;28;1190;-68
2023/12/23 00:39:40;;;;;;;5.33;1.20;;;;;;;;;;693533;28;1269;-69
2023/12/23 00:40:01;;;;;;;4.25;0.88;;;;;;;;;;686886;28;4628;-68
2023/12/23 00:40:21;;;;;;;3.33;0.90;;;;;;;;;;688298;28;774;-69
2023/12/23 00:40:42;;;;;;;5.63;0.90;;;;;;;;;;689572;28;1291;-69
2023/12/23 00:41:03;;;;;;;4.57;1.38;;;;;;;;;;688448;28;2459;-69
2023/12/23 00:41:24;;;;;;;4.55;1.30;;;;;;;;;;689317;28;1447;-70
2023/12/23 00:41:44;;;;;;;4.57;0.98;;;;;;;;;;687534;28;1283;-68
2023/12/23 00:42:05;;;;;;;4.00;1.00;;;;;;;;;;684579;28;1725;-68
2023/12/23 00:42:25;;;;;;;3.00;0.80;;;;;;;;;;684620;28;1424;-69
2023/12/23 00:42:46;;;;;;;6.50;0.90;;;;;;;;;;685102;28;4298;-68
2023/12/23 00:43:06;;;;;;;6.67;0.90;;;;;;;;;;685091;28;1739;-70
2023/12/23 00:43:26;;;;;;;7.30;1.00;;;;;;;;;;688518;28;1385;-70
2023/12/23 00:43:46;;;;;;;6.20;1.00;;;;;;;;;;687349;28;1252;-68
2023/12/23 00:44:07;;;;;;;4.03;0.97;;;;;;;;;;686261;28;1689;-69
2023/12/23 00:44:27;;;;;;;4.05;0.90;;;;;;;;;;689165;28;1330;-68
2023/12/23 00:44:47;;;;;;;2.67;0.97;;;;;;;;;;691874;28;1013;-68
2023/12/23 00:45:07;;;;;;;3.97;1.10;;;;;;;;;;689490;28;2217;-70
2023/12/23 00:45:28;;;;;;;4.68;1.00;;;;;;;;;;690920;28;1329;-69
2023/12/23 00:45:48;;;;;;;3.53;0.97;;;;;;;;;;686577;28;4820;-69
2023/12/23 00:46:08;;;;;;;4.53;1.00;;;;;;;;;;681605;28;1880;-69
2023/12/23 00:46:29;;;;;;;4.93;1.02;;;;;;;;;;685512;28;1220;-68
2023/12/23 00:46:49;;;;;;;4.73;1.10;;;;;;;;;;684810;28;1407;-67
2023/12/23 00:47:09;;;;;;;4.53;1.10;;;;;;;;;;685356;28;1913;-67
2023/12/23 00:47:29;;;;;;;4.47;0.90;;;;;;;;;;686270;28;1232;-67
2023/12/23 00:47:50;;;;;;;5.87;0.93;;;;;;;;;;686962;28;1240;-68
2023/12/23 00:48:11;;;;;;;5.50;1.10;;;;;;;;;;684813;28;1729;-69
2023/12/23 00:48:31;;;;;;;4.63;0.90;;;;;;;;;;689516;28;1330;-67
2023/12/23 00:48:52;;;;;;;4.70;0.90;;;;;;;;;;687120;28;4484;-69
2023/12/23 00:49:12;;;;;;;3.37;0.90;;;;;;;;;;687390;28;2281;-69
2023/12/23 00:49:32;;;;;;;4.93;1.00;;;;;;;;;;686154;28;1323;-68
2023/12/23 00:49:52;;;;;;;3.63;0.77;;;;;;;;;;689698;28;1224;-67
2023/12/23 00:50:13;;;;;;;4.53;1.00;;;;;;;;;;691282;28;2215;-67
2023/12/23 00:50:34;;;;;;;5.13;1.00;;;;;;;;;;692486;28;1361;-66
2023/12/23 00:50:54;;;;;;;7.47;1.10;;;;;;;;;;689489;28;1338;-69
2023/12/23 00:51:15;;;;;;;5.07;1.00;;;;;;;;;;688478;28;1815;-68
2023/12/23 00:51:35;;;;;;;3.55;0.70;;;;;;;;;;689459;28;1359;-66
2023/12/23 00:51:55;;;;;;;5.13;0.90;;;;;;;;;;686515;28;4263;-67
2023/12/23 00:52:16;;;;;;;5.10;0.90;;;;;;;;;;685586;28;2197;-67
2023/12/23 00:52:36;;;;;;;3.77;0.70;;;;;;;;;;686845;28;1283;-67
2023/12/23 00:52:57;;;;;;;4.20;1.00;;;;;;;;;;686928;28;1367;-68
2023/12/23 00:53:18;;;;;;;4.43;1.15;;;;;;;;;;687061;28;1234;-67
2023/12/23 00:53:38;;;;;;;3.90;1.03;;;;;;;;;;686846;28;1390;-67
2023/12/23 00:53:59;;;;;;;4.70;0.90;;;;;;;;;;688498;28;1492;-68
2023/12/23 00:54:19;;;;;;;4.03;0.90;;;;;;;;;;689285;28;1338;-69
2023/12/23 00:54:40;;;;;;;2.63;0.90;;;;;;;;;;687508;28;4484;-68
2023/12/23 00:55:02;;;;;;;3.73;1.13;;;;;;;;;;687763;28;1799;-68
2023/12/23 00:55:22;;;;;;;5.15;1.27;;;;;;;;;;687531;28;1946;-67
2023/12/23 00:55:43;;;;;;;3.60;1.07;;;;;;;;;;687779;28;1306;-67
2023/12/23 00:56:03;;;;;;;3.35;0.77;;;;;;;;;;683878;28;1765;-67
2023/12/23 00:56:24;;;;;;;3.50;0.93;;;;;;;;;;684707;28;1347;-66
2023/12/23 00:56:44;;;;;;;5.10;0.90;;;;;;;;;;686607;28;1141;-68
2023/12/23 00:57:04;;;;;;;4.63;0.90;;;;;;;;;;686010;28;2543;-68
2023/12/23 00:57:24;;;;;;;3.70;0.80;;;;;;;;;;689731;28;1271;-68
2023/12/23 00:57:45;;;;;;;3.40;0.90;;;;;;;;;;689501;28;4610;-69
2023/12/23 00:58:05;;;;;;;3.80;0.80;;;;;;;;;;691227;28;1421;-68
2023/12/23 00:58:25;;;;;;;5.73;0.93;;;;;;;;;;691832;28;1151;-69
2023/12/23 00:58:46;;;;;;;5.20;0.97;;;;;;;;;;691746;28;1243;-69
2023/12/23 00:59:06;;;;;;;3.88;1.00;;;;;;;;;;690396;28;2354;-68
2023/12/23 00:59:26;;;;;;;2.30;1.07;;;;;;;;;;687870;28;1302;-68
2023/12/23 00:59:47;;;;;;;3.40;0.90;;;;;;;;;;689662;28;1220;-67
2023/12/23 01:00:07;;;;;;;4.03;1.10;;;;;;;;;;691210;28;1848;-67
2023/12/23 01:00:28;;;;;;;3.60;0.90;;;;;;;;;;694849;28;1242;-66
2023/12/23 01:00:48;;;;;;;4.27;0.90;;;;;;;;;;692017;28;4537;-67
2023/12/23 01:01:08;;;;;;;5.18;1.15;;;;;;;;;;691551;28;2215;-69
2023/12/23 01:01:29;;;;;;;5.73;1.30;;;;;;;;;;695188;28;1329;-67
2023/12/23 01:01:49;;;;;;;5.33;1.00;;;;;;;;;;694325;28;1226;-68
2023/12/23 01:02:09;;;;;;;6.30;1.02;;;;;;;;;;693989;28;1778;-69
2023/12/23 01:02:29;;;;;;;3.50;0.97;;;;;;;;;;694992;28;1215;-67
2023/12/23 01:02:49;;;;;;;3.90;0.90;;;;;;;;;;695022;28;1366;-67
2023/12/23 01:03:10;;;;;;;2.77;0.97;;;;;;;;;;694070;28;1883;-67
2023/12/23 01:03:30;;;;;;;5.67;1.07;;;;;;;;;;694627;28;1132;-67
2023/12/23 01:03:50;;;;;;;4.30;0.80;;;;;;;;;;694568;28;4531;-68
2023/12/23 01:04:11;;;;;;;4.77;1.00;;;;;;;;;;691234;28;2686;-68
2023/12/23 01:04:31;;;;;;;4.78;1.10;;;;;;;;;;692438;28;1234;-69
2023/12/23 01:04:54;;;;;;;2.67;0.90;;;;;;;;;;691970;28;1317;-69
2023/12/23 01:05:14;;;;;;;3.17;0.70;;;;;;;;;;691141;28;2638;-67
2023/12/23 01:05:34;;;;;;;4.43;1.13;;;;;;;;;;692648;28;1223;-69
2023/12/23 01:05:55;;;;;;;5.22;1.00;;;;;;;;;;692763;28;1227;-69
2023/12/23 01:06:15;;;;;;;4.53;0.97;;;;;;;;;;693497;28;1836;-69
2023/12/23 01:06:35;;;;;;;4.18;0.95;;;;;;;;;;694578;28;2138;-68
2023/12/23 01:06:56;;;;;;;4.97;0.90;;;;;;;;;;694502;28;4377;-68
2023/12/23 01:07:16;;;;;;;4.87;0.80;;;;;;;;;;694125;28;1782;-68
2023/12/23 01:07:36;;;;;;;4.23;0.80;;;;;;;;;;692196;28;1199;-68
2023/12/23 01:07:56;;;;;;;3.60;0.87;;;;;;;;;;691403;28;1350;-68
2023/12/23 01:08:16;;;;;;;4.77;1.00;;;;;;;;;;689766;28;1947;-69
2023/12/23 01:08:37;;;;;;;4.37;1.10;;;;;;;;;;687965;28;1272;-69
2023/12/23 01:08:57;;;;;;;4.18;0.93;;;;;;;;;;687938;28;1355;-68
2023/12/23 01:09:17;;;;;;;3.80;0.73;;;;;;;;;;687713;28;1720;-70
2023/12/23 01:09:38;;;;;;;5.57;1.00;;;;;;;;;;685063;28;1410;-69
2023/12/23 01:09:58;;;;;;;5.10;0.90;;;;;;;;;;690599;28;4403;-70
2023/12/23 01:10:22;;;;;;;5.47;0.83;;;;;;;;;;691912;28;1183;-69
2023/12/23 01:10:42;;;;;;;6.35;1.00;;;;;;;;;;692255;28;1183;-69
2023/12/23 01:11:02;;;;;;;5.17;1.00;;;;;;;;;;691014;28;2539;-68
2023/12/23 01:11:22;;;;;;;4.87;0.87;;;;;;;;;;692231;28;1239;-69
2023/12/23 01:11:43;;;;;;;5.07;0.83;;;;;;;;;;695845;28;1111;-69
2023/12/23 01:12:04;;;;;;;4.60;0.80;;;;;;;;;;694186;28;1246;-68
2023/12/23 01:12:24;;;;;;;3.38;0.68;;;;;;;;;;695097;28;1131;-67
2023/12/23 01:12:44;;;;;;;3.47;0.80;;;;;;;;;;695070;28;4273;-67
2023/12/23 01:13:04;;;;;;;4.63;0.95;;;;;;;;;;693757;28;1121;-66
2023/12/23 01:13:25;;;;;;;3.13;0.80;;;;;;;;;;695644;28;1323;-69
2023/12/23 01:13:46;;;;;;;5.43;0.90;;;;;;;;;;692640;28;1271;-69
2023/12/23 01:14:06;;;;;;;4.40;0.90;;;;;;;;;;688153;28;1785;-67
2023/12/23 01:14:26;;;;;;;3.38;0.80;;;;;;;;;;689252;28;1432;-68
2023/12/23 01:14:46;;;;;;;4.80;1.40;;;;;;;;;;689428;28;1274;-68
2023/12/23 01:15:07;;;;;;;4.87;0.97;;;;;;;;;;688008;28;1414;-68
2023/12/23 01:15:28;;;;;;;4.78;1.00;;;;;;;;;;691358;28;1382;-69
2023/12/23 01:15:49;;;;;;;4.47;0.98;;;;;;;;;;693707;28;4412;-69
2023/12/23 01:16:09;;;;;;;3.60;0.93;;;;;;;;;;694161;28;1510;-69
2023/12/23 01:16:29;;;;;;;5.23;0.90;;;;;;;;;;693356;28;3613;-67
2023/12/23 01:16:49;;;;;;;4.67;1.00;;;;;;;;;;693217;28;1207;-69
2023/12/23 01:17:10;;;;;;;2.63;0.80;;;;;;;;;;695405;28;2240;-68
2023/12/23 01:17:31;;;;;;;4.30;0.90;;;;;;;;;;692142;28;1293;-67
2023/12/23 01:17:51;;;;;;;3.87;0.87;;;;;;;;;;692192;28;1235;-67
2023/12/23 01:18:11;;;;;;;4.40;1.00;;;;;;;;;;691300;28;1700;-68
2023/12/23 01:18:32;;;;;;;5.63;1.10;;;;;;;;;;692410;28;1246;-67
2023/12/23 01:18:52;;;;;;;3.95;0.82;;;;;;;;;;688421;28;4418;-69
2023/12/23 01:19:13;;;;;;;4.63;0.90;;;;;;;;;;685528;28;2401;-68
2023/12/23 01:19:33;;;;;;;4.53;0.87;;;;;;;;;;691546;28;1469;-67
2023/12/23 01:19:53;;;;;;;4.77;0.80;;;;;;;;;;687025;28;1252;-67
2023/12/23 01:20:13;;;;;;;3.22;0.80;;;;;;;;;;687011;28;1961;-67
2023/12/23 01:20:34;;;;;;;5.53;1.03;;;;;;;;;;687851;28;1365;-67
2023/12/23 01:20:54;;;;;;;6.47;1.20;;;;;;;;;;686737;28;1332;-66
2023/12/23 01:21:20;;;;;;;4.43;0.90;;;;;;;;;;685539;28;1738;-67
2023/12/23 01:21:41;;;;;;;5.93;1.20;;;;;;;;;;684764;28;4876;-67
2023/12/23 01:22:01;;;;;;;4.65;0.90;;;;;;;;;;685141;28;2374;-67
2023/12/23 01:22:21;;;;;;;4.20;0.90;;;;;;;;;;687748;28;1283;-67
2023/12/23 01:22:42;;;;;;;5.63;1.07;;;;;;;;;;692227;28;1109;-68
2023/12/23 01:23:02;;;;;;;5.67;1.00;;;;;;;;;;689414;28;2316;-67
2023/12/23 01:23:23;;;;;;;7.47;1.00;;;;;;;;;;689975;28;1323;-67
2023/12/23 01:23:44;;;;;;;4.32;0.90;;;;;;;;;;687736;28;1361;-66
2023/12/23 01:24:04;;;;;;;4.77;1.13;;;;;;;;;;686534;28;2313;-67
2023/12/23 01:24:25;;;;;;;5.22;1.50;;;;;;;;;;683870;28;1384;-67
2023/12/23 01:24:46;;;;;;;4.30;1.10;;;;;;;;;;682924;28;4725;-66
2023/12/23 01:25:06;;;;;;;4.60;1.07;;;;;;;;;;684120;28;2349;-66
2023/12/23 01:25:27;;;;;;;4.18;1.00;;;;;;;;;;685545;28;1180;-66
2023/12/23 01:25:47;;;;;;;2.27;0.80;;;;;;;;;;688700;28;1291;-67
2023/12/23 01:26:08;;;;;;;3.17;0.80;;;;;;;;;;689729;28;2338;-67
2023/12/23 01:26:28;;;;;;;3.00;0.98;;;;;;;;;;692967;28;1323;-66
2023/12/23 01:26:49;;;;;;;4.37;1.03;;;;;;;;;;694165;28;1247;-65
2023/12/23 01:27:09;;;;;;;4.80;0.90;;;;;;;;;;692952;28;2416;-66
2023/12/23 01:27:29;;;;;;;4.67;0.80;;;;;;;;;;695298;28;1305;-67
2023/12/23 01:27:49;;;;;;;6.20;0.97;;;;;;;;;;694249;28;4385;-67
2023/12/23 01:28:10;;;;;;;3.93;1.20;;;;;;;;;;691193;28;2275;-66
2023/12/23 01:28:30;;;;;;;3.03;0.80;;;;;;;;;;694447;28;1206;-66
2023/12/23 01:28:50;;;;;;;4.17;0.90;;;;;;;;;;694987;28;1377;-65
2023/12/23 01:29:11;;;;;;;3.20;0.90;;;;;;;;;;695144;28;2326;-65
2023/12/23 01:29:31;;;;;;;4.30;1.10;;;;;;;;;;693991;28;1375;-66
2023/12/23 01:29:51;;;;;;;5.10;1.10;;;;;;;;;;694560;28;1172;-65
2023/12/23 01:30:11;;;;;;;4.63;0.90;;;;;;;;;;690640;28;1802;-67
2023/12/23 01:30:32;;;;;;;4.72;1.00;;;;;;;;;;689562;28;1248;-65
2023/12/23 01:30:52;;;;;;;4.27;1.10;;;;;;;;;;689227;28;4316;-66
2023/12/23 01:31:12;;;;;;;4.38;1.30;;;;;;;;;;688080;28;1790;-65
2023/12/23 01:31:33;;;;;;;3.83;1.03;;;;;;;;;;685781;28;1267;-64
2023/12/23 01:31:53;;;;;;;3.17;1.00;;;;;;;;;;689698;28;1350;-66
2023/12/23 01:32:14;;;;;;;5.45;1.10;;;;;;;;;;688226;28;2331;-66
2023/12/23 01:32:34;;;;;;;6.63;1.10;;;;;;;;;;688909;28;1350;-66
2023/12/23 01:32:54;;;;;;;5.90;1.10;;;;;;;;;;688428;28;1365;-64
2023/12/23 01:33:15;;;;;;;4.60;0.90;;;;;;;;;;684656;28;2809;-64
2023/12/23 01:33:35;;;;;;;6.03;1.30;;;;;;;;;;687599;28;1367;-65
2023/12/23 01:33:56;;;;;;;5.20;1.40;;;;;;;;;;687647;28;4255;-65
2023/12/23 01:34:17;;;;;;;5.55;1.33;;;;;;;;;;688051;28;2357;-65
2023/12/23 01:34:38;;;;;;;6.80;1.17;;;;;;;;;;689110;28;1227;-64
2023/12/23 01:34:58;;;;;;;5.95;1.10;;;;;;;;;;688556;28;1149;-63
2023/12/23 01:35:18;;;;;;;8.13;1.00;;;;;;;;;;690118;28;2731;-64
2023/12/23 01:35:39;;;;;;;5.45;0.90;;;;;;;;;;691959;28;1367;-63
2023/12/23 01:35:59;;;;;;;5.03;1.20;;;;;;;;;;691956;28;1441;-64
2023/12/23 01:36:19;;;;;;;3.50;0.90;;;;;;;;;;690078;28;1566;-65
2023/12/23 01:36:40;;;;;;;4.53;0.90;;;;;;;;;;688697;28;4476;-65
2023/12/23 01:37:00;;;;;;;5.27;1.03;;;;;;;;;;687803;28;2563;-66
2023/12/23 01:37:20;;;;;;;5.87;1.10;;;;;;;;;;686944;28;1959;-64
2023/12/23 01:37:40;;;;;;;4.80;0.98;;;;;;;;;;686613;28;1279;-64
2023/12/23 01:38:01;;;;;;;5.13;1.00;;;;;;;;;;687710;28;2278;-64
2023/12/23 01:38:21;;;;;;;3.43;1.00;;;;;;;;;;689437;28;1286;-65
2023/12/23 01:38:42;;;;;;;5.85;1.08;;;;;;;;;;689298;28;1307;-65
2023/12/23 01:39:02;;;;;;;4.03;0.97;;;;;;;;;;690740;28;5829;-67
2023/12/23 01:39:23;;;;;;;4.25;0.98;;;;;;;;;;691787;28;1266;-66
2023/12/23 01:39:45;;;;;;;4.35;0.90;;;;;;;;;;693735;28;4733;-64
2023/12/23 01:40:06;;;;;;;6.00;1.10;;;;;;;;;;694278;28;1746;-63
2023/12/23 01:40:28;;;;;;;4.22;0.90;;;;;;;;;;694726;28;1325;-64
2023/12/23 01:40:48;;;;;;;4.60;1.20;;;;;;;;;;691807;28;1625;-66
2023/12/23 01:41:08;;;;;;;2.33;0.97;;;;;;;;;;690946;28;2397;-64
2023/12/23 01:41:29;;;;;;;3.27;0.80;;;;;;;;;;691703;28;1399;-66
2023/12/23 01:41:49;;;;;;;3.55;0.80;;;;;;;;;;689383;28;1267;-64
2023/12/23 01:42:09;;;;;;;3.13;0.90;;;;;;;;;;688277;28;1723;-64
2023/12/23 01:42:29;;;;;;;4.20;0.90;;;;;;;;;;689489;28;1268;-65
2023/12/23 01:42:50;;;;;;;4.72;1.15;;;;;;;;;;691020;28;4410;-64
2023/12/23 01:43:10;;;;;;;4.87;1.00;;;;;;;;;;690019;28;2304;-64
2023/12/23 01:43:31;;;;;;;3.80;0.90;;;;;;;;;;689753;28;1563;-64
2023/12/23 01:43:51;;;;;;;3.37;0.80;;;;;;;;;;689475;28;872;-65
2023/12/23 01:44:12;;;;;;;4.47;1.10;;;;;;;;;;688327;28;1476;-65
2023/12/23 01:44:33;;;;;;;3.60;0.90;;;;;;;;;;687282;28;1983;-66
2023/12/23 01:44:53;;;;;;;5.20;0.80;;;;;;;;;;687058;28;1113;-63
2023/12/23 01:45:13;;;;;;;7.37;1.10;;;;;;;;;;685726;28;2400;-63
2023/12/23 01:45:33;;;;;;;3.87;0.83;;;;;;;;;;689630;28;1342;-64
2023/12/23 01:45:56;;;;;;;3.40;0.97;;;;;;;;;;688867;28;4338;-65
2023/12/23 01:46:16;;;;;;;5.38;0.95;;;;;;;;;;688245;28;2597;-63
2023/12/23 01:46:36;;;;;;;5.13;0.90;;;;;;;;;;689319;28;1330;-64
2023/12/23 01:46:59;;;;;;;4.82;1.00;;;;;;;;;;687970;28;1537;-64
2023/12/23 01:47:20;;;;;;;6.22;0.90;;;;;;;;;;685710;28;2083;-65
2023/12/23 01:47:42;;;;;;;5.50;1.17;;;;;;;;;;686936;28;1396;-64
2023/12/23 01:48:02;;;;;;;6.28;1.25;;;;;;;;;;686528;28;2411;-63
2023/12/23 01:48:23;;;;;;;3.97;1.08;;;;;;;;;;689201;28;1311;-62
2023/12/23 01:48:44;;;;;;;4.63;1.00;;;;;;;;;;688850;28;4496;-64
2023/12/23 01:49:04;;;;;;;4.78;1.00;;;;;;;;;;686117;28;1980;-64
2023/12/23 01:49:25;;;;;;;4.45;1.33;;;;;;;;;;688812;28;1186;-63
2023/12/23 01:49:46;;;;;;;4.17;1.20;;;;;;;;;;689806;28;1128;-66
2023/12/23 01:50:07;;;;;;;4.60;1.10;;;;;;;;;;688943;28;1727;-63
2023/12/23 01:50:27;;;;;;;5.75;1.10;;;;;;;;;;690907;28;1309;-63
2023/12/23 01:50:48;;;;;;;5.68;1.08;;;;;;;;;;690166;28;1282;-66
2023/12/23 01:51:09;;;;;;;5.13;1.10;;;;;;;;;;685837;28;2111;-63
2023/12/23 01:51:29;;;;;;;4.85;0.88;;;;;;;;;;685620;28;1346;-63
2023/12/23 01:51:50;;;;;;;4.80;1.10;;;;;;;;;;685019;28;4498;-65
2023/12/23 01:52:10;;;;;;;5.30;1.10;;;;;;;;;;682941;28;1716;-63
2023/12/23 01:52:31;;;;;;;4.95;0.85;;;;;;;;;;684118;28;1271;-65
2023/12/23 01:52:53;;;;;;;4.88;1.00;;;;;;;;;;684647;28;1327;-63
2023/12/23 01:53:13;;;;;;;3.05;1.10;;;;;;;;;;683106;28;1805;-66
2023/12/23 01:53:33;;;;;;;3.90;0.90;;;;;;;;;;683989;28;1268;-65
2023/12/23 01:53:56;;;;;;;4.83;0.87;;;;;;;;;;687374;28;1534;-65
2023/12/23 01:54:18;;;;;;;4.32;0.88;;;;;;;;;;688596;28;1728;-63
2023/12/23 01:54:38;;;;;;;5.60;1.00;;;;;;;;;;688876;28;1390;-64
2023/12/23 01:54:58;;;;;;;5.53;1.10;;;;;;;;;;687986;28;4293;-65
2023/12/23 01:55:19;;;;;;;5.77;1.07;;;;;;;;;;685992;28;2453;-63
2023/12/23 01:55:39;;;;;;;6.17;1.03;;;;;;;;;;686712;28;1343;-63
2023/12/23 01:56:00;;;;;;;4.27;0.90;;;;;;;;;;684217;28;1441;-63
2023/12/23 01:56:20;;;;;;;4.32;0.95;;;;;;;;;;681104;28;2327;-65
2023/12/23 01:56:41;;;;;;;3.80;0.93;;;;;;;;;;685613;28;1297;-65
2023/12/23 01:57:01;;;;;;;3.72;0.73;;;;;;;;;;682136;28;1334;-65
2023/12/23 01:57:21;;;;;;;4.72;0.80;;;;;;;;;;683403;28;1975;-64
2023/12/23 01:57:43;;;;;;;3.80;0.80;;;;;;;;;;681273;28;4602;-66
2023/12/23 01:58:03;;;;;;;5.40;0.90;;;;;;;;;;684603;28;2369;-64
2023/12/23 01:58:23;;;;;;;3.27;0.80;;;;;;;;;;688356;28;1133;-64
2023/12/23 01:58:45;;;;;;;4.93;1.23;;;;;;;;;;685869;28;1202;-65
2023/12/23 01:59:07;;;;;;;3.47;0.88;;;;;;;;;;686132;28;2050;-63
2023/12/23 01:59:28;;;;;;;3.17;0.93;;;;;;;;;;689694;28;1442;-64
2023/12/23 01:59:49;;;;;;;5.22;1.10;;;;;;;;;;691941;28;1320;-64
2023/12/23 02:00:10;;;;;;;5.30;1.10;;;;;;;;;;688376;28;2341;-65
2023/12/23 02:00:34;;;;;;;3.40;0.90;;;;;;;;;;688632;28;1157;-64
2023/12/23 02:00:55;;;;;;;3.47;0.80;;;;;;;;;;687457;28;4343;-65
2023/12/23 02:01:15;;;;;;;6.13;1.00;;;;;;;;;;692003;28;1778;-65
2023/12/23 02:01:36;;;;;;;5.13;1.08;;;;;;;;;;691867;28;1558;-65
2023/12/23 02:01:56;;;;;;;4.53;0.93;;;;;;;;;;692213;28;1256;-64
2023/12/23 02:02:17;;;;;;;5.53;1.20;;;;;;;;;;693271;28;1727;-66
2023/12/23 02:02:38;;;;;;;5.60;1.40;;;;;;;;;;690908;28;1766;-64
2023/12/23 02:02:59;;;;;;;3.53;0.90;;;;;;;;;;691021;28;1401;-64
2023/12/23 02:03:21;;;;;;;4.18;0.93;;;;;;;;;;686901;28;1376;-64
2023/12/23 02:03:42;;;;;;;6.80;1.10;;;;;;;;;;689008;28;4630;-66
2023/12/23 02:04:03;;;;;;;5.43;1.10;;;;;;;;;;688096;28;2502;-65
2023/12/23 02:04:23;;;;;;;3.57;0.80;;;;;;;;;;689382;28;1310;-64
2023/12/23 02:04:44;;;;;;;5.90;1.35;;;;;;;;;;688766;28;1302;-64
2023/12/23 02:05:05;;;;;;;4.95;1.30;;;;;;;;;;688456;28;2174;-65
2023/12/23 02:05:26;;;;;;;3.40;0.88;;;;;;;;;;689661;28;1223;-65
2023/12/23 02:05:46;;;;;;;4.63;1.08;;;;;;;;;;686691;28;1311;-64
2023/12/23 02:06:06;;;;;;;5.23;0.90;;;;;;;;;;687956;28;1318;-65
2023/12/23 02:06:27;;;;;;;4.63;0.87;;;;;;;;;;687104;28;1654;-65
2023/12/23 02:06:47;;;;;;;5.13;1.05;;;;;;;;;;689419;28;4262;-65